Time;durP1;ratioP1;P1;durP2;ratioP2;P2;SDS_P1;SDS_P2;PMS_P1;PMS_P2;Temp;Humidity;BMP_temperature;BMP_pressure;BME280_temperature;BME280_humidity;BME280_pressure;Samples;Min_cycle;Max_cycle;Signal;HPM_P1;HPM_P2
2024/01/05 00:01:37;;;;;;;18.05;5.20;;;8.70;84.40;;;;;;5050749;28;20478;-74
2024/01/05 00:04:02;;;;;;;17.30;4.50;;;8.70;83.90;;;;;;5050697;28;20909;-73
2024/01/05 00:06:28;;;;;;;14.55;4.47;;;8.60;84.80;;;;;;5050893;28;20394;-73
2024/01/05 00:08:54;;;;;;;24.15;5.90;;;8.70;83.90;;;;;;5050908;28;20427;-73
2024/01/05 00:11:20;;;;;;;15.77;3.70;;;8.80;82.80;;;;;;5051084;28;20389;-73
2024/01/05 00:13:46;;;;;;;12.50;4.00;;;8.70;82.30;;;;;;5051051;28;20447;-73
2024/01/05 00:16:19;;;;;;;14.07;4.75;;;8.70;82.40;;;;;;5049648;28;20451;-73
2024/01/05 00:18:45;;;;;;;16.00;4.03;;;8.60;83.40;;;;;;5050693;28;20481;-73
2024/01/05 00:21:25;;;;;;;18.95;5.10;;;8.70;83.60;;;;;;5050344;28;20459;-72
2024/01/05 00:23:52;;;;;;;18.05;4.20;;;8.70;83.20;;;;;;5050790;28;20381;-73
2024/01/05 00:26:18;;;;;;;17.13;4.70;;;8.60;83.50;;;;;;5050585;28;20381;-73
2024/01/05 00:28:45;;;;;;;18.48;4.90;;;8.50;84.00;;;;;;5050776;28;20437;-73
2024/01/05 00:31:11;;;;;;;17.38;4.45;;;8.40;84.40;;;;;;5050470;28;20420;-73
2024/01/05 00:33:41;;;;;;;16.60;4.65;;;8.30;85.80;;;;;;5050859;28;20395;-73
2024/01/05 00:36:08;;;;;;;20.88;5.18;;;8.30;87.10;;;;;;5050431;28;20389;-73
2024/01/05 00:38:35;;;;;;;16.70;5.18;;;8.30;88.00;;;;;;5050100;28;20385;-73
2024/01/05 00:41:01;;;;;;;17.98;4.95;;;8.30;88.10;;;;;;5050135;28;20401;-75
2024/01/05 00:43:27;;;;;;;20.45;4.60;;;8.40;87.80;;;;;;5050345;28;20373;-73
2024/01/05 00:45:54;;;;;;;18.97;5.00;;;8.50;87.30;;;;;;5050405;28;20419;-73
2024/01/05 00:48:19;;;;;;;18.30;4.55;;;8.50;87.20;;;;;;5050208;28;20393;-74
2024/01/05 00:50:45;;;;;;;13.88;4.60;;;8.70;86.60;;;;;;5049798;28;20386;-74
2024/01/05 00:53:11;;;;;;;20.67;4.32;;;8.70;84.50;;;;;;5050405;28;20883;-73
2024/01/05 00:55:36;;;;;;;20.73;5.55;;;8.60;84.10;;;;;;5050589;28;20392;-74
2024/01/05 00:58:02;;;;;;;16.25;4.43;;;8.60;84.70;;;;;;5055359;28;20397;-74
2024/01/05 01:00:28;;;;;;;17.65;4.45;;;8.50;84.70;;;;;;5053606;28;20401;-73
2024/01/05 01:02:53;;;;;;;16.43;4.40;;;8.50;85.30;;;;;;5050376;28;20382;-73
2024/01/05 01:05:19;;;;;;;18.87;4.57;;;8.40;86.20;;;;;;5050859;28;20382;-74
2024/01/05 01:07:45;;;;;;;15.10;3.90;;;8.30;85.50;;;;;;5054766;28;20416;-75
2024/01/05 01:10:10;;;;;;;18.35;4.95;;;8.20;86.20;;;;;;5059018;28;20388;-73
2024/01/05 01:12:36;;;;;;;16.92;4.10;;;8.10;87.20;;;;;;5050523;28;20416;-72
2024/01/05 01:15:02;;;;;;;16.98;4.45;;;8.00;88.60;;;;;;5049905;28;20484;-73
2024/01/05 01:17:30;;;;;;;20.43;3.90;;;8.00;89.10;;;;;;5049993;28;20400;-73
2024/01/05 01:19:56;;;;;;;22.05;4.43;;;7.90;90.80;;;;;;5050301;28;20729;-73
2024/01/05 01:22:21;;;;;;;20.48;4.80;;;7.80;91.00;;;;;;5049981;28;20428;-72
2024/01/05 01:24:47;;;;;;;21.70;5.10;;;7.80;91.90;;;;;;5049957;28;20388;-73
2024/01/05 01:27:14;;;;;;;19.77;4.28;;;7.80;92.10;;;;;;5052014;28;21028;-73
2024/01/05 01:29:39;;;;;;;24.48;4.47;;;7.80;92.00;;;;;;5053850;28;20731;-72
2024/01/05 01:32:05;;;;;;;18.52;4.32;;;7.70;93.10;;;;;;5053623;28;20393;-73
2024/01/05 01:34:31;;;;;;;17.70;4.30;;;7.70;93.90;;;;;;5053805;28;20387;-73
2024/01/05 01:36:56;;;;;;;16.33;4.80;;;7.70;93.70;;;;;;5053603;28;20386;-73
2024/01/05 01:39:22;;;;;;;19.70;4.88;;;7.70;93.60;;;;;;5054367;28;20420;-74
2024/01/05 01:41:47;;;;;;;16.98;4.28;;;7.70;95.10;;;;;;5053635;28;20401;-74
2024/01/05 01:44:13;;;;;;;21.67;4.68;;;7.80;95.60;;;;;;5054277;28;20401;-74
2024/01/05 01:46:39;;;;;;;11.73;3.95;;;7.90;94.40;;;;;;5054887;28;20423;-73
2024/01/05 01:49:05;;;;;;;15.55;4.72;;;7.90;92.30;;;;;;5055263;28;20400;-74
2024/01/05 01:51:32;;;;;;;19.33;4.65;;;7.80;92.90;;;;;;5055397;28;20464;-74
2024/01/05 01:54:03;;;;;;;21.25;5.70;;;7.80;93.60;;;;;;5055144;28;20381;-74
2024/01/05 01:56:30;;;;;;;24.20;5.30;;;7.80;94.20;;;;;;5053187;28;20427;-73
2024/01/05 01:58:56;;;;;;;16.13;4.43;;;7.70;94.20;;;;;;5053237;28;20425;-73
2024/01/05 02:01:22;;;;;;;17.65;4.60;;;7.70;94.80;;;;;;5053021;28;20397;-73
2024/01/05 02:03:47;;;;;;;16.60;4.30;;;7.70;94.90;;;;;;5053109;28;20381;-73
2024/01/05 02:06:14;;;;;;;14.87;3.87;;;7.70;94.70;;;;;;5053213;28;20922;-74
2024/01/05 02:08:40;;;;;;;21.35;4.53;;;7.60;95.10;;;;;;5052755;28;20381;-73
2024/01/05 02:11:05;;;;;;;20.02;5.03;;;7.60;94.60;;;;;;5052758;28;20891;-73
2024/01/05 02:13:32;;;;;;;19.47;4.40;;;7.50;94.80;;;;;;5052937;28;20416;-73
2024/01/05 02:15:58;;;;;;;20.02;4.53;;;7.60;95.20;;;;;;5052906;28;20477;-75
2024/01/05 02:18:23;;;;;;;16.00;4.70;;;7.60;94.90;;;;;;5052450;28;20477;-74
2024/01/05 02:20:49;;;;;;;20.53;4.90;;;7.60;95.00;;;;;;5052292;28;20503;-74
2024/01/05 02:23:28;;;;;;;18.00;4.70;;;7.50;95.50;;;;;;5052380;28;20401;-75
2024/01/05 02:25:58;;;;;;;24.42;4.80;;;7.40;95.40;;;;;;5052579;28;20382;-75
2024/01/05 02:28:24;;;;;;;21.98;4.63;;;7.40;96.20;;;;;;5052112;28;20378;-74
2024/01/05 02:30:53;;;;;;;13.70;4.32;;;7.30;96.50;;;;;;5052222;28;20389;-74
2024/01/05 02:33:18;;;;;;;17.13;3.75;;;7.40;96.50;;;;;;5052384;28;20373;-73
2024/01/05 02:35:44;;;;;;;21.05;4.47;;;7.30;97.30;;;;;;5052166;28;20443;-73
2024/01/05 02:38:09;;;;;;;13.07;4.07;;;7.40;96.60;;;;;;5051284;28;20381;-73
2024/01/05 02:40:35;;;;;;;19.20;4.63;;;7.50;97.00;;;;;;5051934;28;20381;-73
2024/01/05 02:43:01;;;;;;;19.67;4.18;;;7.40;96.20;;;;;;5052068;28;20382;-75
2024/01/05 02:45:26;;;;;;;15.90;4.50;;;7.40;96.20;;;;;;5051901;28;20426;-74
2024/01/05 02:47:52;;;;;;;13.50;4.30;;;7.30;96.70;;;;;;5051818;28;20436;-73
2024/01/05 02:50:18;;;;;;;24.00;4.78;;;7.30;97.20;;;;;;5051981;28;20409;-73
2024/01/05 02:52:44;;;;;;;16.75;4.70;;;7.30;97.90;;;;;;5052000;28;20397;-74
2024/01/05 02:55:11;;;;;;;14.35;3.85;;;7.20;97.90;;;;;;5051873;28;20698;-74
2024/01/05 02:57:37;;;;;;;18.38;4.18;;;7.30;97.30;;;;;;5051619;28;20479;-73
2024/01/05 03:00:03;;;;;;;16.90;3.70;;;7.40;97.60;;;;;;5051678;28;20855;-74
2024/01/05 03:02:29;;;;;;;19.05;4.00;;;7.50;96.60;;;;;;5051455;28;20451;-75
2024/01/05 03:04:55;;;;;;;16.02;4.72;;;7.50;95.30;;;;;;5051881;28;20440;-74
2024/01/05 03:07:21;;;;;;;23.98;5.13;;;7.50;94.80;;;;;;5051959;28;21089;-74
2024/01/05 03:09:46;;;;;;;19.48;4.25;;;7.40;95.20;;;;;;5052554;28;20381;-74
2024/01/05 03:12:12;;;;;;;15.63;4.00;;;7.30;95.70;;;;;;5052367;28;20381;-73
2024/01/05 03:14:37;;;;;;;17.70;4.40;;;7.40;95.80;;;;;;5051462;28;20393;-73
2024/01/05 03:17:03;;;;;;;15.93;5.10;;;7.40;95.30;;;;;;5051692;28;20435;-75
2024/01/05 03:19:28;;;;;;;14.50;3.50;;;7.40;95.00;;;;;;5051863;28;20380;-75
2024/01/05 03:21:54;;;;;;;15.52;3.88;;;7.40;94.60;;;;;;5051467;28;20492;-75
2024/01/05 03:24:20;;;;;;;14.63;3.67;;;7.30;95.20;;;;;;5051571;28;20390;-74
2024/01/05 03:26:45;;;;;;;14.60;4.10;;;7.40;94.80;;;;;;5051165;28;20381;-74
2024/01/05 03:29:11;;;;;;;12.30;3.53;;;7.40;94.00;;;;;;5051205;28;20460;-74
2024/01/05 03:31:37;;;;;;;18.17;4.10;;;7.50;93.30;;;;;;5051265;28;20469;-74
2024/01/05 03:34:02;;;;;;;12.18;3.90;;;7.50;91.60;;;;;;5051215;28;20389;-74
2024/01/05 03:36:28;;;;;;;14.00;4.07;;;7.60;91.40;;;;;;5051115;28;20816;-75
2024/01/05 03:38:54;;;;;;;18.55;3.85;;;7.60;91.20;;;;;;5051212;28;20532;-76
2024/01/05 03:41:20;;;;;;;20.70;3.87;;;7.50;91.90;;;;;;5050765;28;20445;-73
2024/01/05 03:43:45;;;;;;;10.18;3.75;;;7.50;92.00;;;;;;5051056;28;20385;-74
2024/01/05 03:46:12;;;;;;;13.90;4.40;;;7.50;91.40;;;;;;5050825;28;20385;-74
2024/01/05 03:48:38;;;;;;;14.15;3.65;;;7.40;91.80;;;;;;5051093;28;20572;-74
2024/01/05 03:51:04;;;;;;;15.75;4.05;;;7.50;92.60;;;;;;5050819;28;20397;-74
2024/01/05 03:53:30;;;;;;;12.02;3.88;;;7.40;92.40;;;;;;5050998;28;20484;-74
2024/01/05 03:55:59;;;;;;;16.23;3.90;;;7.50;91.60;;;;;;5051147;28;20481;-74
2024/01/05 03:58:25;;;;;;;13.88;3.78;;;7.50;90.80;;;;;;5049324;28;20385;-74
2024/01/05 04:00:50;;;;;;;12.13;3.90;;;7.60;89.50;;;;;;5050390;28;20400;-75
2024/01/05 04:03:19;;;;;;;20.40;3.53;;;7.50;89.50;;;;;;5050381;28;20396;-73
2024/01/05 04:05:45;;;;;;;15.33;4.20;;;7.50;91.20;;;;;;5050640;28;20377;-74
2024/01/05 04:08:10;;;;;;;13.50;3.47;;;7.60;91.10;;;;;;5050815;28;20382;-73
2024/01/05 04:10:36;;;;;;;15.03;3.50;;;7.70;90.40;;;;;;5050311;28;20412;-73
2024/01/05 04:13:03;;;;;;;12.82;3.47;;;7.90;88.40;;;;;;5050405;28;20393;-73
2024/01/05 04:15:29;;;;;;;14.27;3.90;;;8.00;86.10;;;;;;5050362;28;20401;-74
2024/01/05 04:17:54;;;;;;;15.43;3.97;;;8.10;84.60;;;;;;5050150;28;20899;-75
2024/01/05 04:20:20;;;;;;;20.60;4.50;;;8.20;83.20;;;;;;5051076;28;20397;-74
2024/01/05 04:22:45;;;;;;;12.50;3.43;;;8.30;82.10;;;;;;5050595;28;20405;-73
2024/01/05 04:25:11;;;;;;;13.23;3.60;;;8.30;80.00;;;;;;5050120;28;20390;-74
2024/01/05 04:27:38;;;;;;;12.53;3.53;;;8.40;78.30;;;;;;5050422;28;20794;-73
2024/01/05 04:30:04;;;;;;;13.50;3.65;;;8.50;77.60;;;;;;5050023;28;20468;-75
2024/01/05 04:32:30;;;;;;;10.48;3.60;;;8.50;77.00;;;;;;5050093;28;20389;-74
2024/01/05 04:34:55;;;;;;;12.13;3.53;;;8.50;77.30;;;;;;5051778;28;20400;-73
2024/01/05 04:37:21;;;;;;;12.77;3.50;;;8.60;74.90;;;;;;5052392;28;20396;-74
2024/01/05 04:39:47;;;;;;;12.93;3.30;;;8.70;74.30;;;;;;5050338;28;20430;-75
2024/01/05 04:42:13;;;;;;;12.50;4.57;;;8.70;72.80;;;;;;5049862;28;20405;-73
2024/01/05 04:44:38;;;;;;;6.90;3.43;;;8.80;74.30;;;;;;5050353;28;20393;-74
2024/01/05 04:47:04;;;;;;;9.33;3.40;;;8.80;72.60;;;;;;5050241;28;20393;-74
2024/01/05 04:49:31;;;;;;;17.47;4.20;;;8.80;71.80;;;;;;5050405;28;20447;-75
2024/01/05 04:51:57;;;;;;;12.48;3.42;;;8.80;72.60;;;;;;5050184;28;20389;-73
2024/01/05 04:54:23;;;;;;;10.35;3.95;;;8.80;72.00;;;;;;5050420;28;20467;-75
2024/01/05 04:56:49;;;;;;;13.23;3.70;;;8.90;72.30;;;;;;5052188;28;20382;-74
2024/01/05 04:59:14;;;;;;;22.00;4.47;;;8.90;70.50;;;;;;5052010;28;20401;-74
2024/01/05 05:01:40;;;;;;;17.95;4.43;;;9.00;71.00;;;;;;5052955;28;20404;-73
2024/01/05 05:04:05;;;;;;;14.15;3.55;;;9.00;69.10;;;;;;5055794;28;20381;-73
2024/01/05 05:06:31;;;;;;;11.93;3.50;;;9.00;68.50;;;;;;5055003;28;20830;-73
2024/01/05 05:08:56;;;;;;;15.47;3.27;;;9.00;69.70;;;;;;5054436;28;20405;-73
2024/01/05 05:11:22;;;;;;;11.70;3.40;;;9.00;69.10;;;;;;5055898;28;20389;-74
2024/01/05 05:13:48;;;;;;;9.40;3.30;;;8.90;69.80;;;;;;5055097;28;20389;-73
2024/01/05 05:16:13;;;;;;;13.10;3.50;;;9.00;69.00;;;;;;5055411;28;20951;-73
2024/01/05 05:18:39;;;;;;;15.40;3.90;;;9.00;67.90;;;;;;5055188;28;20603;-73
2024/01/05 05:21:05;;;;;;;15.68;3.55;;;8.90;68.50;;;;;;5055310;28;20444;-74
2024/01/05 05:23:30;;;;;;;11.90;3.80;;;8.90;69.10;;;;;;5055926;28;20381;-75
2024/01/05 05:25:57;;;;;;;12.93;3.40;;;8.90;69.20;;;;;;5054705;28;20402;-75
2024/01/05 05:28:23;;;;;;;9.63;3.30;;;9.00;68.60;;;;;;5054164;28;20450;-74
2024/01/05 05:30:49;;;;;;;15.20;3.70;;;9.00;67.70;;;;;;5053637;28;20393;-73
2024/01/05 05:33:14;;;;;;;11.77;3.90;;;9.10;67.00;;;;;;5053732;28;20397;-72
2024/01/05 05:35:40;;;;;;;12.57;3.80;;;9.10;66.80;;;;;;5053394;28;20385;-75
2024/01/05 05:38:06;;;;;;;16.67;3.80;;;8.90;67.00;;;;;;5053164;28;20381;-74
2024/01/05 05:40:32;;;;;;;9.60;3.67;;;8.80;68.30;;;;;;5053010;28;20408;-75
2024/01/05 05:42:57;;;;;;;12.25;3.30;;;8.60;70.00;;;;;;5053079;28;20393;-75
2024/01/05 05:45:23;;;;;;;11.07;3.73;;;8.50;71.10;;;;;;5055224;28;20385;-75
2024/01/05 05:47:50;;;;;;;10.37;3.00;;;8.40;72.10;;;;;;5052789;28;20438;-73
2024/01/05 05:50:15;;;;;;;12.95;3.40;;;8.30;72.70;;;;;;5051797;28;20731;-75
2024/01/05 05:52:43;;;;;;;13.90;3.93;;;8.20;73.70;;;;;;5053044;28;20515;-75
2024/01/05 05:55:12;;;;;;;9.45;3.33;;;8.20;74.50;;;;;;5052745;28;20396;-74
2024/01/05 05:57:39;;;;;;;14.82;4.22;;;8.20;74.50;;;;;;5053025;28;20865;-75
2024/01/05 06:00:05;;;;;;;14.40;3.97;;;8.20;75.60;;;;;;5053231;28;20861;-74
2024/01/05 06:02:30;;;;;;;9.70;3.22;;;8.20;75.30;;;;;;5053533;28;20405;-75
2024/01/05 06:04:56;;;;;;;7.97;3.60;;;8.10;75.60;;;;;;5054852;28;20401;-75
2024/01/05 06:07:23;;;;;;;13.07;3.50;;;8.10;75.80;;;;;;5053830;28;20397;-75
2024/01/05 06:09:48;;;;;;;9.10;3.60;;;8.00;76.40;;;;;;5053284;28;20385;-73
2024/01/05 06:12:14;;;;;;;11.47;3.60;;;8.00;76.60;;;;;;5052472;28;20394;-75
2024/01/05 06:14:39;;;;;;;12.27;4.03;;;8.10;75.10;;;;;;5052138;28;20381;-74
2024/01/05 06:17:05;;;;;;;8.27;3.20;;;8.00;75.80;;;;;;5052518;28;20469;-75
2024/01/05 06:19:31;;;;;;;13.73;4.33;;;8.00;76.10;;;;;;5052736;28;20417;-75
2024/01/05 06:21:59;;;;;;;13.87;4.00;;;8.00;75.50;;;;;;5052545;28;20478;-74
2024/01/05 06:24:25;;;;;;;11.93;3.53;;;8.00;76.20;;;;;;5052541;28;20385;-74
2024/01/05 06:26:51;;;;;;;10.87;3.50;;;8.10;75.00;;;;;;5051821;28;20868;-73
2024/01/05 06:29:17;;;;;;;12.50;3.47;;;8.10;74.30;;;;;;5052200;28;20419;-74
2024/01/05 06:31:43;;;;;;;9.98;3.50;;;8.00;74.30;;;;;;5052236;28;20389;-74
2024/01/05 06:34:08;;;;;;;10.97;3.20;;;8.10;73.60;;;;;;5051983;28;20421;-74
2024/01/05 06:36:34;;;;;;;8.00;2.90;;;8.00;73.90;;;;;;5051992;28;20905;-74
2024/01/05 06:38:59;;;;;;;11.83;3.23;;;8.10;74.00;;;;;;5052129;28;20760;-74
2024/01/05 06:41:25;;;;;;;11.03;2.93;;;8.20;73.40;;;;;;5051935;28;20459;-75
2024/01/05 06:43:50;;;;;;;10.50;3.30;;;8.30;71.50;;;;;;5052049;28;20517;-74
2024/01/05 06:46:16;;;;;;;13.93;3.20;;;8.50;71.10;;;;;;5051827;28;20377;-74
2024/01/05 06:48:41;;;;;;;13.55;5.30;;;8.70;68.20;;;;;;5052328;28;20417;-75
2024/01/05 06:51:07;;;;;;;11.40;3.30;;;8.70;66.70;;;;;;5052461;28;20413;-74
2024/01/05 06:53:33;;;;;;;10.05;3.45;;;8.90;66.90;;;;;;5052735;28;20752;-74
2024/01/05 06:55:58;;;;;;;9.55;3.22;;;9.00;65.10;;;;;;5051265;28;20382;-75
2024/01/05 06:58:24;;;;;;;11.87;2.83;;;9.10;63.00;;;;;;5054910;28;20428;-75
2024/01/05 07:00:49;;;;;;;8.83;2.93;;;9.10;62.00;;;;;;5054164;28;20811;-75
2024/01/05 07:03:15;;;;;;;9.05;2.85;;;9.20;61.80;;;;;;5054862;28;20768;-75
2024/01/05 07:05:41;;;;;;;7.15;3.03;;;9.30;59.80;;;;;;5053498;28;20416;-74
2024/01/05 07:08:09;;;;;;;7.87;2.80;;;9.40;59.40;;;;;;5052804;28;20478;-74
2024/01/05 07:10:35;;;;;;;9.20;3.00;;;9.40;58.40;;;;;;5052994;28;20382;-74
2024/01/05 07:13:00;;;;;;;11.10;2.97;;;9.30;58.80;;;;;;5051581;28;20887;-73
2024/01/05 07:15:26;;;;;;;7.23;2.63;;;9.40;58.00;;;;;;5051292;28;20953;-75
2024/01/05 07:17:51;;;;;;;14.00;3.20;;;9.40;56.80;;;;;;5046736;28;20394;-75
2024/01/05 07:20:17;;;;;;;15.47;3.37;;;9.40;57.80;;;;;;5049702;28;20541;-75
2024/01/05 07:22:43;;;;;;;7.95;2.40;;;9.40;57.30;;;;;;5041998;28;20414;-74
2024/01/05 07:25:11;;;;;;;6.38;2.40;;;9.40;57.30;;;;;;5030685;28;20392;-74
2024/01/05 07:27:37;;;;;;;7.72;2.70;;;9.50;56.80;;;;;;5031197;28;20402;-73
2024/01/05 07:30:06;;;;;;;9.17;2.70;;;9.50;56.50;;;;;;5044162;28;20389;-74
2024/01/05 07:32:32;;;;;;;7.80;2.67;;;9.50;57.90;;;;;;5032348;28;20939;-74
2024/01/05 07:34:58;;;;;;;10.13;3.40;;;9.50;57.50;;;;;;5043660;28;20492;-73
2024/01/05 07:37:24;;;;;;;7.78;2.80;;;9.40;58.50;;;;;;5053380;28;20883;-74
2024/01/05 07:39:50;;;;;;;10.27;3.10;;;9.40;57.60;;;;;;5052360;28;20385;-74
2024/01/05 07:42:15;;;;;;;7.95;2.80;;;9.40;56.80;;;;;;5051913;28;20405;-75
2024/01/05 07:44:41;;;;;;;11.67;4.30;;;9.40;57.10;;;;;;5044008;28;20486;-76
2024/01/05 07:47:08;;;;;;;9.93;2.90;;;9.40;56.40;;;;;;5037095;28;20456;-74
2024/01/05 07:49:34;;;;;;;9.75;2.50;;;9.50;56.20;;;;;;5049397;28;20397;-74
2024/01/05 07:52:00;;;;;;;8.70;2.53;;;9.40;56.70;;;;;;5050732;28;20439;-71
2024/01/05 07:54:26;;;;;;;5.13;2.43;;;9.50;55.40;;;;;;5050580;28;20397;-73
2024/01/05 07:56:51;;;;;;;5.70;2.40;;;9.60;54.30;;;;;;5032331;28;20387;-74
2024/01/05 07:59:17;;;;;;;4.00;1.70;;;9.60;54.00;;;;;;5041824;28;20417;-73
2024/01/05 08:01:43;;;;;;;9.77;2.60;;;9.60;53.70;;;;;;5032623;28;20415;-74
2024/01/05 08:04:10;;;;;;;13.05;2.40;;;9.50;53.50;;;;;;5029661;28;20497;-74
2024/01/05 08:06:36;;;;;;;11.32;2.80;;;9.50;54.00;;;;;;5029991;28;20777;-74
2024/01/05 08:09:01;;;;;;;7.50;2.00;;;9.50;54.20;;;;;;5030477;28;20418;-72
2024/01/05 08:11:27;;;;;;;13.52;2.60;;;9.70;53.10;;;;;;5031010;28;20470;-75
2024/01/05 08:13:53;;;;;;;10.70;2.60;;;9.70;53.10;;;;;;5030516;28;20434;-75
2024/01/05 08:16:19;;;;;;;8.30;2.03;;;9.80;51.60;;;;;;5030797;28;20482;-73
2024/01/05 08:18:45;;;;;;;4.07;1.77;;;9.90;49.90;;;;;;5030102;28;20383;-75
2024/01/05 08:21:10;;;;;;;7.07;1.90;;;9.90;48.50;;;;;;5030185;28;20410;-74
2024/01/05 08:23:36;;;;;;;6.17;1.90;;;10.00;48.10;;;;;;5028772;28;20379;-76
2024/01/05 08:26:05;;;;;;;4.60;1.80;;;10.00;47.60;;;;;;5030430;28;20428;-76
2024/01/05 08:28:31;;;;;;;7.50;2.00;;;10.00;47.40;;;;;;5029866;28;20421;-74
2024/01/05 08:30:57;;;;;;;5.93;2.00;;;10.00;47.70;;;;;;5030874;28;20440;-75
2024/01/05 08:33:22;;;;;;;6.13;2.10;;;10.00;47.40;;;;;;5030973;28;20418;-74
2024/01/05 08:35:48;;;;;;;5.38;1.63;;;10.00;46.30;;;;;;5029068;28;20387;-75
2024/01/05 08:38:14;;;;;;;3.58;1.63;;;10.00;45.20;;;;;;5030060;28;20426;-74
2024/01/05 08:40:40;;;;;;;5.40;1.52;;;10.00;45.10;;;;;;5030371;28;20420;-74
2024/01/05 08:43:06;;;;;;;4.82;1.30;;;9.90;44.70;;;;;;5030358;28;20793;-74
2024/01/05 08:45:33;;;;;;;3.15;1.40;;;9.90;43.90;;;;;;5030074;28;20509;-75
2024/01/05 08:47:59;;;;;;;4.57;1.60;;;9.90;44.30;;;;;;5030472;28;20399;-75
2024/01/05 08:50:25;;;;;;;4.20;1.30;;;9.90;43.90;;;;;;5030793;28;20387;-75
2024/01/05 08:52:50;;;;;;;3.60;1.30;;;10.00;42.20;;;;;;5030513;28;20473;-74
2024/01/05 08:55:17;;;;;;;4.33;1.10;;;10.00;40.70;;;;;;5031415;28;20395;-75
2024/01/05 08:57:44;;;;;;;3.20;1.30;;;10.10;39.80;;;;;;5030895;28;20498;-74
2024/01/05 09:00:09;;;;;;;2.63;1.15;;;10.10;39.50;;;;;;5030611;28;20892;-74
2024/01/05 09:02:36;;;;;;;1.90;0.87;;;10.00;38.80;;;;;;5030739;28;20406;-75
2024/01/05 09:05:04;;;;;;;3.53;1.00;;;10.10;37.60;;;;;;5033304;28;20415;-75
2024/01/05 09:07:33;;;;;;;2.13;0.90;;;10.10;37.90;;;;;;5033001;28;20382;-75
2024/01/05 09:09:59;;;;;;;2.20;1.00;;;10.00;38.00;;;;;;5032739;28;20383;-76
2024/01/05 09:12:25;;;;;;;4.17;1.10;;;10.00;37.50;;;;;;5032567;28;20387;-75
2024/01/05 09:14:51;;;;;;;2.50;0.90;;;10.00;36.60;;;;;;5032381;28;20398;-75
2024/01/05 09:17:16;;;;;;;2.38;1.10;;;10.00;36.40;;;;;;5031192;28;20383;-74
2024/01/05 09:19:42;;;;;;;2.72;0.90;;;10.00;36.30;;;;;;5030067;28;20395;-74
2024/01/05 09:22:08;;;;;;;1.90;0.70;;;10.00;36.30;;;;;;5029718;28;20853;-75
2024/01/05 09:24:35;;;;;;;1.40;0.70;;;10.00;36.50;;;;;;5029967;28;20423;-74
2024/01/05 09:27:02;;;;;;;3.00;1.30;;;10.00;35.60;;;;;;5029805;28;20870;-75
2024/01/05 09:29:31;;;;;;;3.35;0.80;;;10.00;35.40;;;;;;5029920;28;20384;-75
2024/01/05 09:31:56;;;;;;;3.95;0.80;;;10.00;35.40;;;;;;5029519;28;20390;-75
2024/01/05 09:34:22;;;;;;;1.10;0.60;;;10.10;35.00;;;;;;5029834;28;20750;-75
2024/01/05 09:36:48;;;;;;;1.92;0.70;;;10.10;35.80;;;;;;5030502;28;20390;-75
2024/01/05 09:39:14;;;;;;;1.30;0.80;;;10.00;35.60;;;;;;5029972;28;20881;-76
2024/01/05 09:41:43;;;;;;;1.97;0.90;;;10.10;35.60;;;;;;5029607;28;20936;-75
2024/01/05 09:44:11;;;;;;;2.00;0.98;;;10.00;35.50;;;;;;5030357;28;20422;-74
2024/01/05 09:46:39;;;;;;;2.92;0.95;;;10.00;35.40;;;;;;5032374;28;20398;-76
2024/01/05 09:49:06;;;;;;;1.30;0.80;;;10.00;35.00;;;;;;5033003;28;20379;-75
2024/01/05 09:51:32;;;;;;;2.90;0.90;;;10.10;35.20;;;;;;5033434;28;20390;-75
2024/01/05 09:53:58;;;;;;;3.00;0.80;;;10.00;35.10;;;;;;5033320;28;20417;-75
2024/01/05 09:56:26;;;;;;;2.33;0.80;;;10.00;34.30;;;;;;5033445;28;20383;-75
2024/01/05 09:58:52;;;;;;;1.73;0.90;;;10.00;34.90;;;;;;5033942;28;20402;-74
2024/01/05 10:01:28;;;;;;;1.73;1.00;;;10.00;35.30;;;;;;5033561;28;20462;-74
2024/01/05 10:03:59;;;;;;;3.50;0.90;;;10.00;35.70;;;;;;5034010;28;20842;-73
2024/01/05 10:06:25;;;;;;;3.10;0.80;;;10.10;34.60;;;;;;5032200;28;20386;-76
2024/01/05 10:08:55;;;;;;;1.63;0.82;;;10.10;34.20;;;;;;5033881;28;20394;-74
2024/01/05 10:11:31;;;;;;;2.90;1.00;;;10.10;34.10;;;;;;5032567;28;20402;-73
2024/01/05 10:14:01;;;;;;;2.30;1.10;;;10.10;34.20;;;;;;5032533;28;20422;-74
2024/01/05 10:16:36;;;;;;;1.90;0.90;;;10.10;34.30;;;;;;5039084;28;20834;-74
2024/01/05 10:19:16;;;;;;;1.70;0.80;;;10.10;34.30;;;;;;5034279;28;20766;-75
2024/01/05 10:21:46;;;;;;;2.15;0.90;;;10.10;34.20;;;;;;5033026;28;20769;-74
2024/01/05 10:24:25;;;;;;;4.50;1.00;;;10.10;34.80;;;;;;5033542;28;20809;-75
2024/01/05 10:27:01;;;;;;;2.88;1.20;;;10.20;34.60;;;;;;5033491;28;20398;-75
2024/01/05 10:29:27;;;;;;;1.40;0.90;;;10.20;34.40;;;;;;5033614;28;20410;-74
2024/01/05 10:31:53;;;;;;;1.60;0.90;;;10.20;34.30;;;;;;5033881;28;20422;-73
2024/01/05 10:34:19;;;;;;;1.88;0.90;;;10.20;34.50;;;;;;5033741;28;20391;-75
2024/01/05 10:36:44;;;;;;;3.50;1.00;;;10.10;34.50;;;;;;5033596;28;20421;-75
2024/01/05 10:39:10;;;;;;;1.23;0.90;;;10.10;34.40;;;;;;5033933;28;20466;-75
2024/01/05 10:41:36;;;;;;;3.88;1.10;;;10.10;34.80;;;;;;5033591;28;20406;-74
2024/01/05 10:44:04;;;;;;;3.22;0.98;;;10.00;35.00;;;;;;5033460;28;20375;-74
2024/01/05 10:46:31;;;;;;;4.63;1.20;;;10.00;34.90;;;;;;5032952;28;20425;-74
2024/01/05 10:48:57;;;;;;;5.47;1.20;;;10.10;35.00;;;;;;5032776;28;20893;-74
2024/01/05 10:51:23;;;;;;;3.60;1.10;;;10.10;34.80;;;;;;5033094;28;20383;-75
2024/01/05 10:53:50;;;;;;;3.00;1.00;;;10.10;34.80;;;;;;5033003;28;20493;-75
2024/01/05 10:56:19;;;;;;;2.45;1.00;;;10.00;34.50;;;;;;5033277;28;20419;-75
2024/01/05 10:58:48;;;;;;;1.63;0.90;;;10.00;34.80;;;;;;5032835;28;20394;-74
2024/01/05 11:01:18;;;;;;;4.70;1.00;;;10.00;34.70;;;;;;5032192;28;20778;-74
2024/01/05 11:03:44;;;;;;;3.10;1.10;;;10.00;34.90;;;;;;5032800;28;20744;-73
2024/01/05 11:06:11;;;;;;;2.07;1.07;;;10.00;34.80;;;;;;5032853;28;20384;-76
2024/01/05 11:08:53;;;;;;;2.67;0.90;;;10.00;34.50;;;;;;5032397;28;20797;-76
2024/01/05 11:11:34;;;;;;;2.50;1.02;;;10.10;34.30;;;;;;5033533;28;20414;-75
2024/01/05 11:14:21;;;;;;;3.47;1.10;;;10.00;34.30;;;;;;5034869;28;20833;-74
2024/01/05 11:17:21;;;;;;;1.60;1.10;;;10.00;34.40;;;;;;5036797;28;20398;-76
2024/01/05 11:20:08;;;;;;;5.18;1.38;;;10.10;34.50;;;;;;5033961;28;20821;-75
2024/01/05 11:22:36;;;;;;;4.60;1.00;;;10.10;34.40;;;;;;5040260;28;20403;-75
2024/01/05 11:25:03;;;;;;;5.20;1.40;;;10.10;34.30;;;;;;5048450;28;20387;-73
2024/01/05 11:27:30;;;;;;;3.58;1.15;;;10.10;34.10;;;;;;5045316;28;20757;-75
2024/01/05 11:29:57;;;;;;;4.10;1.10;;;10.10;33.80;;;;;;5045961;28;20379;-74
2024/01/05 11:32:35;;;;;;;3.92;1.20;;;10.20;33.90;;;;;;5043427;28;20466;-75
2024/01/05 11:35:02;;;;;;;4.60;1.30;;;10.20;34.00;;;;;;5031977;28;20437;-75
2024/01/05 11:37:31;;;;;;;4.43;1.60;;;10.20;33.90;;;;;;5031496;28;20903;-76
2024/01/05 11:39:59;;;;;;;5.60;1.60;;;10.20;34.40;;;;;;5032035;28;20375;-75
2024/01/05 11:42:24;;;;;;;6.20;1.10;;;10.30;34.00;;;;;;5031491;28;20480;-75
2024/01/05 11:44:54;;;;;;;3.47;1.33;;;10.40;33.90;;;;;;5031501;28;20470;-76
2024/01/05 11:47:46;;;;;;;4.75;1.30;;;10.50;33.80;;;;;;5031111;28;20751;-75
2024/01/05 11:50:32;;;;;;;2.70;1.10;;;10.40;33.80;;;;;;5031326;28;20462;-75
2024/01/05 11:53:10;;;;;;;2.50;1.05;;;10.40;33.70;;;;;;5031633;28;20440;-75
2024/01/05 11:55:40;;;;;;;4.10;1.10;;;10.40;34.20;;;;;;5031248;28;20391;-75
2024/01/05 11:58:12;;;;;;;2.60;1.00;;;10.30;34.80;;;;;;5031400;28;20440;-74
2024/01/05 12:00:39;;;;;;;4.70;1.13;;;10.10;34.80;;;;;;5031158;28;20419;-75
2024/01/05 12:03:04;;;;;;;6.20;1.50;;;10.20;34.70;;;;;;5031376;28;20410;-74
2024/01/05 12:05:34;;;;;;;3.40;1.20;;;10.20;34.50;;;;;;5031130;28;20387;-74
2024/01/05 12:08:00;;;;;;;4.43;1.10;;;10.20;34.80;;;;;;5030724;28;20394;-75
2024/01/05 12:10:27;;;;;;;3.72;1.40;;;10.20;35.50;;;;;;5032635;28;20433;-74
2024/01/05 12:12:53;;;;;;;6.30;1.70;;;10.20;34.70;;;;;;5033195;28;20393;-74
2024/01/05 12:15:20;;;;;;;3.50;1.27;;;10.20;35.10;;;;;;5031872;28;20399;-75
2024/01/05 12:17:47;;;;;;;2.75;1.20;;;10.20;35.10;;;;;;5032010;28;20387;-73
2024/01/05 12:20:13;;;;;;;5.13;1.80;;;10.10;35.40;;;;;;5031682;28;20399;-77
2024/01/05 12:22:39;;;;;;;3.00;1.20;;;10.10;34.90;;;;;;5031461;28;20411;-74
2024/01/05 12:25:05;;;;;;;3.90;1.37;;;10.20;34.60;;;;;;5031703;28;20454;-76
2024/01/05 12:27:38;;;;;;;3.33;1.30;;;10.10;35.10;;;;;;5030565;28;20386;-74
2024/01/05 12:30:05;;;;;;;4.65;1.30;;;10.00;35.50;;;;;;5036985;28;20402;-76
2024/01/05 12:32:34;;;;;;;1.73;1.00;;;9.90;35.90;;;;;;5032856;28;20393;-75
2024/01/05 12:35:01;;;;;;;4.80;1.30;;;9.90;36.10;;;;;;5031631;28;20394;-75
2024/01/05 12:37:26;;;;;;;3.15;1.10;;;9.90;36.60;;;;;;5032015;28;20738;-75
2024/01/05 12:39:52;;;;;;;2.40;1.53;;;9.90;36.50;;;;;;5035065;28;20387;-75
2024/01/05 12:42:18;;;;;;;5.87;1.30;;;9.80;37.20;;;;;;5033054;28;20539;-74
2024/01/05 12:44:44;;;;;;;3.20;1.30;;;9.80;37.40;;;;;;5031899;28;20383;-76
2024/01/05 12:47:10;;;;;;;4.67;1.30;;;9.80;37.60;;;;;;5030988;28;20379;-75